sensor_id;sensor_type;location;lat;lon;timestamp;temperature;humidity
24522;DHT22;12680;57.804;12.190;2023-09-08T00:02:25;14.70;99.90
24522;DHT22;12680;57.804;12.190;2023-09-08T00:04:52;14.70;99.90
24522;DHT22;12680;57.804;12.190;2023-09-08T00:07:26;14.70;99.90
24522;DHT22;12680;57.804;12.190;2023-09-08T00:09:53;14.70;99.90
24522;DHT22;12680;57.804;12.190;2023-09-08T00:12:23;14.70;99.90
24522;DHT22;12680;57.804;12.190;2023-09-08T00:14:59;14.80;99.90
24522;DHT22;12680;57.804;12.190;2023-09-08T00:17:28;14.70;99.90
24522;DHT22;12680;57.804;12.190;2023-09-08T00:20:06;14.70;99.90
24522;DHT22;12680;57.804;12.190;2023-09-08T00:22:38;14.70;99.90
24522;DHT22;12680;57.804;12.190;2023-09-08T00:25:11;14.70;99.90
24522;DHT22;12680;57.804;12.190;2023-09-08T00:27:42;14.70;99.90
24522;DHT22;12680;57.804;12.190;2023-09-08T00:30:09;14.70;99.90
24522;DHT22;12680;57.804;12.190;2023-09-08T00:32:42;14.70;99.90
24522;DHT22;12680;57.804;12.190;2023-09-08T00:35:11;14.60;99.90
24522;DHT22;12680;57.804;12.190;2023-09-08T00:37:40;14.60;99.90
24522;DHT22;12680;57.804;12.190;2023-09-08T00:40:14;14.60;99.90
24522;DHT22;12680;57.804;12.190;2023-09-08T00:42:41;14.60;99.90
24522;DHT22;12680;57.804;12.190;2023-09-08T00:45:08;14.60;99.90
24522;DHT22;12680;57.804;12.190;2023-09-08T00:47:44;14.50;99.90
24522;DHT22;12680;57.804;12.190;2023-09-08T00:50:14;14.50;99.90
24522;DHT22;12680;57.804;12.190;2023-09-08T00:52:51;14.50;99.90
24522;DHT22;12680;57.804;12.190;2023-09-08T00:55:28;14.50;99.90
24522;DHT22;12680;57.804;12.190;2023-09-08T00:58:12;16.60;99.90
24522;DHT22;12680;57.804;12.190;2023-09-08T01:00:42;14.40;99.90
24522;DHT22;12680;57.804;12.190;2023-09-08T01:03:10;14.40;99.90
24522;DHT22;12680;57.804;12.190;2023-09-08T01:05:45;14.40;99.90
24522;DHT22;12680;57.804;12.190;2023-09-08T01:08:19;14.40;99.90
24522;DHT22;12680;57.804;12.190;2023-09-08T01:10:52;14.40;99.90
24522;DHT22;12680;57.804;12.190;2023-09-08T01:13:19;14.40;99.90
24522;DHT22;12680;57.804;12.190;2023-09-08T01:15:49;14.30;99.90
24522;DHT22;12680;57.804;12.190;2023-09-08T01:18:23;14.40;99.90
24522;DHT22;12680;57.804;12.190;2023-09-08T01:21:12;14.30;99.90
24522;DHT22;12680;57.804;12.190;2023-09-08T01:26:41;14.40;99.90
24522;DHT22;12680;57.804;12.190;2023-09-08T01:29:18;14.40;99.90
24522;DHT22;12680;57.804;12.190;2023-09-08T01:31:45;14.30;99.90
24522;DHT22;12680;57.804;12.190;2023-09-08T01:34:13;14.30;99.90
24522;DHT22;12680;57.804;12.190;2023-09-08T01:36:46;14.30;99.90
24522;DHT22;12680;57.804;12.190;2023-09-08T01:39:16;14.30;99.90
24522;DHT22;12680;57.804;12.190;2023-09-08T01:41:43;14.30;99.90
24522;DHT22;12680;57.804;12.190;2023-09-08T01:44:17;14.30;99.90
24522;DHT22;12680;57.804;12.190;2023-09-08T01:46:44;14.30;99.90
24522;DHT22;12680;57.804;12.190;2023-09-08T01:49:14;14.30;99.90
24522;DHT22;12680;57.804;12.190;2023-09-08T01:51:47;14.20;99.90
24522;DHT22;12680;57.804;12.190;2023-09-08T01:54:14;14.20;99.90
24522;DHT22;12680;57.804;12.190;2023-09-08T02:26:38;14.20;99.90
24522;DHT22;12680;57.804;12.190;2023-09-08T02:29:12;14.20;99.90
24522;DHT22;12680;57.804;12.190;2023-09-08T02:31:39;14.10;99.90
24522;DHT22;12680;57.804;12.190;2023-09-08T02:34:10;14.10;99.90
24522;DHT22;12680;57.804;12.190;2023-09-08T02:36:44;14.10;99.90
24522;DHT22;12680;57.804;12.190;2023-09-08T02:39:17;14.00;99.90
24522;DHT22;12680;57.804;12.190;2023-09-08T02:41:51;14.00;99.90
24522;DHT22;12680;57.804;12.190;2023-09-08T02:44:22;14.00;99.90
24522;DHT22;12680;57.804;12.190;2023-09-08T02:46:48;14.00;99.90
24522;DHT22;12680;57.804;12.190;2023-09-08T02:49:22;13.90;99.90
24522;DHT22;12680;57.804;12.190;2023-09-08T02:51:49;13.90;99.90
24522;DHT22;12680;57.804;12.190;2023-09-08T02:54:22;15.00;99.90
24522;DHT22;12680;57.804;12.190;2023-09-08T02:56:56;13.90;99.90
24522;DHT22;12680;57.804;12.190;2023-09-08T02:59:33;14.00;99.90
24522;DHT22;12680;57.804;12.190;2023-09-08T03:02:00;13.90;99.90
24522;DHT22;12680;57.804;12.190;2023-09-08T03:04:30;13.80;99.90
24522;DHT22;12680;57.804;12.190;2023-09-08T03:07:03;13.80;99.90
24522;DHT22;12680;57.804;12.190;2023-09-08T03:09:43;13.80;99.90
24522;DHT22;12680;57.804;12.190;2023-09-08T03:14:44;13.80;99.90
24522;DHT22;12680;57.804;12.190;2023-09-08T03:17:12;13.80;99.90
24522;DHT22;12680;57.804;12.190;2023-09-08T03:19:45;13.80;99.90
24522;DHT22;12680;57.804;12.190;2023-09-08T03:22:13;13.80;99.90
24522;DHT22;12680;57.804;12.190;2023-09-08T03:24:46;13.70;99.90
24522;DHT22;12680;57.804;12.190;2023-09-08T03:27:13;13.70;99.90
24522;DHT22;12680;57.804;12.190;2023-09-08T03:29:40;13.70;99.90
24522;DHT22;12680;57.804;12.190;2023-09-08T03:32:16;13.60;99.90
24522;DHT22;12680;57.804;12.190;2023-09-08T03:34:46;13.60;99.90
24522;DHT22;12680;57.804;12.190;2023-09-08T03:37:20;13.70;99.90
24522;DHT22;12680;57.804;12.190;2023-09-08T03:39:50;13.60;99.90
24522;DHT22;12680;57.804;12.190;2023-09-08T03:42:32;13.60;99.90
24522;DHT22;12680;57.804;12.190;2023-09-08T03:44:59;13.60;99.90
24522;DHT22;12680;57.804;12.190;2023-09-08T03:47:35;13.60;99.90
24522;DHT22;12680;57.804;12.190;2023-09-08T03:50:08;13.60;99.90
24522;DHT22;12680;57.804;12.190;2023-09-08T03:52:45;13.60;99.90
24522;DHT22;12680;57.804;12.190;2023-09-08T03:55:15;13.60;99.90
24522;DHT22;12680;57.804;12.190;2023-09-08T03:57:45;13.60;99.90
24522;DHT22;12680;57.804;12.190;2023-09-08T04:00:29;13.60;99.90
24522;DHT22;12680;57.804;12.190;2023-09-08T04:02:56;13.50;99.90
24522;DHT22;12680;57.804;12.190;2023-09-08T04:05:30;13.50;99.90
24522;DHT22;12680;57.804;12.190;2023-09-08T04:07:57;13.50;99.90
24522;DHT22;12680;57.804;12.190;2023-09-08T04:10:32;13.50;99.90
24522;DHT22;12680;57.804;12.190;2023-09-08T04:13:00;13.50;99.90
24522;DHT22;12680;57.804;12.190;2023-09-08T04:15:26;13.50;99.90
24522;DHT22;12680;57.804;12.190;2023-09-08T04:18:00;13.50;99.90
24522;DHT22;12680;57.804;12.190;2023-09-08T04:20:30;13.50;99.90
24522;DHT22;12680;57.804;12.190;2023-09-08T04:23:04;13.50;99.90
24522;DHT22;12680;57.804;12.190;2023-09-08T04:25:34;13.60;99.90
24522;DHT22;12680;57.804;12.190;2023-09-08T04:28:09;13.60;99.90
24522;DHT22;12680;57.804;12.190;2023-09-08T04:30:42;13.60;99.90
24522;DHT22;12680;57.804;12.190;2023-09-08T04:33:10;13.60;99.90
24522;DHT22;12680;57.804;12.190;2023-09-08T04:35:47;13.60;99.90
24522;DHT22;12680;57.804;12.190;2023-09-08T04:38:14;13.60;99.90
24522;DHT22;12680;57.804;12.190;2023-09-08T04:40:45;13.70;99.90
24522;DHT22;12680;57.804;12.190;2023-09-08T04:43:18;13.70;99.90
24522;DHT22;12680;57.804;12.190;2023-09-08T04:45:48;13.70;99.90
24522;DHT22;12680;57.804;12.190;2023-09-08T04:48:29;13.70;99.90
24522;DHT22;12680;57.804;12.190;2023-09-08T04:50:57;13.80;99.90
24522;DHT22;12680;57.804;12.190;2023-09-08T04:53:30;13.80;99.90
24522;DHT22;12680;57.804;12.190;2023-09-08T04:55:57;13.90;99.90
24522;DHT22;12680;57.804;12.190;2023-09-08T04:58:47;13.90;99.90
24522;DHT22;12680;57.804;12.190;2023-09-08T05:01:14;14.00;99.90
24522;DHT22;12680;57.804;12.190;2023-09-08T05:03:47;14.10;99.90
24522;DHT22;12680;57.804;12.190;2023-09-08T05:06:15;14.10;99.90
24522;DHT22;12680;57.804;12.190;2023-09-08T05:08:42;14.20;99.90
24522;DHT22;12680;57.804;12.190;2023-09-08T05:11:16;14.20;99.90
24522;DHT22;12680;57.804;12.190;2023-09-08T05:13:52;14.30;99.90
24522;DHT22;12680;57.804;12.190;2023-09-08T05:16:25;14.40;99.90
24522;DHT22;12680;57.804;12.190;2023-09-08T05:19:04;14.50;99.90
24522;DHT22;12680;57.804;12.190;2023-09-08T05:21:41;14.50;99.90
24522;DHT22;12680;57.804;12.190;2023-09-08T05:24:09;14.60;99.90
24522;DHT22;12680;57.804;12.190;2023-09-08T05:26:37;14.60;99.90
24522;DHT22;12680;57.804;12.190;2023-09-08T05:29:15;14.70;99.90
24522;DHT22;12680;57.804;12.190;2023-09-08T05:39:11;14.80;99.90
24522;DHT22;12680;57.804;12.190;2023-09-08T05:41:40;15.00;99.90
24522;DHT22;12680;57.804;12.190;2023-09-08T05:44:13;15.10;99.90
24522;DHT22;12680;57.804;12.190;2023-09-08T05:46:40;15.10;99.90
24522;DHT22;12680;57.804;12.190;2023-09-08T05:49:07;15.10;99.90
24522;DHT22;12680;57.804;12.190;2023-09-08T05:51:44;15.20;99.90
24522;DHT22;12680;57.804;12.190;2023-09-08T05:54:10;15.20;99.90
24522;DHT22;12680;57.804;12.190;2023-09-08T05:56:48;15.30;99.90
24522;DHT22;12680;57.804;12.190;2023-09-08T05:59:22;15.30;99.90
24522;DHT22;12680;57.804;12.190;2023-09-08T06:01:59;15.40;99.90
24522;DHT22;12680;57.804;12.190;2023-09-08T06:04:26;15.40;99.90
24522;DHT22;12680;57.804;12.190;2023-09-08T06:07:03;15.50;99.90
24522;DHT22;12680;57.804;12.190;2023-09-08T06:09:40;15.50;99.90
24522;DHT22;12680;57.804;12.190;2023-09-08T06:12:15;15.70;99.90
24522;DHT22;12680;57.804;12.190;2023-09-08T06:14:45;15.70;99.90
24522;DHT22;12680;57.804;12.190;2023-09-08T06:17:12;15.80;99.90
24522;DHT22;12680;57.804;12.190;2023-09-08T06:19:49;15.90;99.90
24522;DHT22;12680;57.804;12.190;2023-09-08T06:22:15;16.00;99.90
24522;DHT22;12680;57.804;12.190;2023-09-08T06:24:42;16.10;99.90
24522;DHT22;12680;57.804;12.190;2023-09-08T06:27:19;16.10;99.90
24522;DHT22;12680;57.804;12.190;2023-09-08T06:29:49;16.20;99.90
24522;DHT22;12680;57.804;12.190;2023-09-08T06:32:23;16.20;99.90
24522;DHT22;12680;57.804;12.190;2023-09-08T06:34:50;16.30;99.90
24522;DHT22;12680;57.804;12.190;2023-09-08T06:37:17;16.30;99.90
24522;DHT22;12680;57.804;12.190;2023-09-08T06:39:54;16.40;99.90
24522;DHT22;12680;57.804;12.190;2023-09-08T06:52:25;16.80;99.90
24522;DHT22;12680;57.804;12.190;2023-09-08T06:54:55;16.80;99.90
24522;DHT22;12680;57.804;12.190;2023-09-08T06:57:35;17.00;99.90
24522;DHT22;12680;57.804;12.190;2023-09-08T07:00:16;17.00;99.90
24522;DHT22;12680;57.804;12.190;2023-09-08T07:02:53;17.00;99.90
24522;DHT22;12680;57.804;12.190;2023-09-08T07:05:24;17.00;99.90
24522;DHT22;12680;57.804;12.190;2023-09-08T07:07:51;17.10;99.90
24522;DHT22;12680;57.804;12.190;2023-09-08T07:10:28;17.30;99.90
24522;DHT22;12680;57.804;12.190;2023-09-08T07:12:55;17.30;99.90
24522;DHT22;12680;57.804;12.190;2023-09-08T07:15:28;17.40;99.90
24522;DHT22;12680;57.804;12.190;2023-09-08T07:17:58;17.40;99.90
24522;DHT22;12680;57.804;12.190;2023-09-08T07:20:32;17.40;99.90
24522;DHT22;12680;57.804;12.190;2023-09-08T07:23:05;17.50;99.90
24522;DHT22;12680;57.804;12.190;2023-09-08T07:25:39;17.50;99.90
24522;DHT22;12680;57.804;12.190;2023-09-08T07:28:06;17.70;99.90
24522;DHT22;12680;57.804;12.190;2023-09-08T07:30:36;17.80;99.90
24522;DHT22;12680;57.804;12.190;2023-09-08T07:33:09;17.80;99.90
24522;DHT22;12680;57.804;12.190;2023-09-08T07:35:37;18.00;99.90
24522;DHT22;12680;57.804;12.190;2023-09-08T07:38:11;18.10;99.90
24522;DHT22;12680;57.804;12.190;2023-09-08T07:40:41;18.20;99.90
24522;DHT22;12680;57.804;12.190;2023-09-08T07:43:14;18.30;99.90
24522;DHT22;12680;57.804;12.190;2023-09-08T07:45:42;18.40;99.90
24522;DHT22;12680;57.804;12.190;2023-09-08T07:48:18;18.50;99.90
24522;DHT22;12680;57.804;12.190;2023-09-08T07:50:46;18.60;99.90
24522;DHT22;12680;57.804;12.190;2023-09-08T07:53:16;18.70;99.90
24522;DHT22;12680;57.804;12.190;2023-09-08T07:55:56;18.70;99.90
24522;DHT22;12680;57.804;12.190;2023-09-08T07:58:37;18.90;99.90
24522;DHT22;12680;57.804;12.190;2023-09-08T08:01:13;18.90;99.90
24522;DHT22;12680;57.804;12.190;2023-09-08T08:03:41;19.00;99.90
24522;DHT22;12680;57.804;12.190;2023-09-08T08:06:18;19.00;99.90
24522;DHT22;12680;57.804;12.190;2023-09-08T08:08:48;19.00;99.90
24522;DHT22;12680;57.804;12.190;2023-09-08T08:11:23;19.00;99.90
24522;DHT22;12680;57.804;12.190;2023-09-08T08:13:53;19.00;99.90
24522;DHT22;12680;57.804;12.190;2023-09-08T08:16:20;19.00;99.90
24522;DHT22;12680;57.804;12.190;2023-09-08T08:18:54;19.00;99.90
24522;DHT22;12680;57.804;12.190;2023-09-08T08:21:22;19.00;99.90
24522;DHT22;12680;57.804;12.190;2023-09-08T08:23:55;19.10;99.90
24522;DHT22;12680;57.804;12.190;2023-09-08T08:26:23;19.10;99.90
24522;DHT22;12680;57.804;12.190;2023-09-08T08:29:04;19.10;99.90
24522;DHT22;12680;57.804;12.190;2023-09-08T08:31:32;19.20;99.90
24522;DHT22;12680;57.804;12.190;2023-09-08T08:34:06;19.30;99.90
24522;DHT22;12680;57.804;12.190;2023-09-08T08:36:33;19.30;99.90
24522;DHT22;12680;57.804;12.190;2023-09-08T08:39:00;19.50;99.90
24522;DHT22;12680;57.804;12.190;2023-09-08T08:41:34;19.60;99.90
24522;DHT22;12680;57.804;12.190;2023-09-08T08:44:06;19.70;99.90
24522;DHT22;12680;57.804;12.190;2023-09-08T08:46:40;19.70;99.90
24522;DHT22;12680;57.804;12.190;2023-09-08T08:49:09;19.80;99.90
24522;DHT22;12680;57.804;12.190;2023-09-08T08:51:46;19.90;99.90
24522;DHT22;12680;57.804;12.190;2023-09-08T08:54:15;20.40;99.90
24522;DHT22;12680;57.804;12.190;2023-09-08T08:56:42;20.10;99.90
24522;DHT22;12680;57.804;12.190;2023-09-08T08:59:30;20.30;99.90
24522;DHT22;12680;57.804;12.190;2023-09-08T09:01:59;20.40;99.90
24522;DHT22;12680;57.804;12.190;2023-09-08T09:04:33;20.60;99.90
24522;DHT22;12680;57.804;12.190;2023-09-08T09:07:00;20.70;99.90
24522;DHT22;12680;57.804;12.190;2023-09-08T09:09:34;20.90;99.90
24522;DHT22;12680;57.804;12.190;2023-09-08T09:12:01;21.00;99.90
24522;DHT22;12680;57.804;12.190;2023-09-08T09:14:36;21.10;99.90
24522;DHT22;12680;57.804;12.190;2023-09-08T09:17:03;21.20;99.90
24522;DHT22;12680;57.804;12.190;2023-09-08T09:19:31;21.40;99.90
24522;DHT22;12680;57.804;12.190;2023-09-08T09:22:06;21.60;99.90
24522;DHT22;12680;57.804;12.190;2023-09-08T09:24:41;21.80;99.90
24522;DHT22;12680;57.804;12.190;2023-09-08T09:27:17;21.90;99.90
24522;DHT22;12680;57.804;12.190;2023-09-08T09:29:49;22.10;99.90
24522;DHT22;12680;57.804;12.190;2023-09-08T09:32:17;22.20;99.90
24522;DHT22;12680;57.804;12.190;2023-09-08T09:34:57;22.40;99.90
24522;DHT22;12680;57.804;12.190;2023-09-08T09:37:24;22.50;99.90
24522;DHT22;12680;57.804;12.190;2023-09-08T09:39:54;22.70;99.90
24522;DHT22;12680;57.804;12.190;2023-09-08T09:42:28;22.90;99.90
24522;DHT22;12680;57.804;12.190;2023-09-08T09:44:55;22.90;99.90
24522;DHT22;12680;57.804;12.190;2023-09-08T09:47:29;23.00;99.90
24522;DHT22;12680;57.804;12.190;2023-09-08T09:49:56;23.10;99.90
24522;DHT22;12680;57.804;12.190;2023-09-08T09:52:32;23.20;99.90
24522;DHT22;12680;57.804;12.190;2023-09-08T09:55:05;23.30;99.90
24522;DHT22;12680;57.804;12.190;2023-09-08T09:57:40;23.50;99.90
24522;DHT22;12680;57.804;12.190;2023-09-08T10:00:14;23.40;99.90
24522;DHT22;12680;57.804;12.190;2023-09-08T10:02:49;23.50;99.90
24522;DHT22;12680;57.804;12.190;2023-09-08T10:05:17;23.60;99.90
24522;DHT22;12680;57.804;12.190;2023-09-08T10:07:47;23.60;99.90
24522;DHT22;12680;57.804;12.190;2023-09-08T10:10:22;23.70;99.90
24522;DHT22;12680;57.804;12.190;2023-09-08T10:12:53;23.70;99.90
24522;DHT22;12680;57.804;12.190;2023-09-08T10:15:24;23.80;99.90
24522;DHT22;12680;57.804;12.190;2023-09-08T10:17:58;23.90;99.90
24522;DHT22;12680;57.804;12.190;2023-09-08T10:20:34;23.90;99.90
24522;DHT22;12680;57.804;12.190;2023-09-08T10:23:15;24.10;99.90
24522;DHT22;12680;57.804;12.190;2023-09-08T10:25:47;24.10;99.90
24522;DHT22;12680;57.804;12.190;2023-09-08T10:28:32;24.20;99.90
24522;DHT22;12680;57.804;12.190;2023-09-08T10:31:01;24.40;99.90
24522;DHT22;12680;57.804;12.190;2023-09-08T10:33:37;24.50;99.90
24522;DHT22;12680;57.804;12.190;2023-09-08T10:36:05;24.50;99.90
24522;DHT22;12680;57.804;12.190;2023-09-08T10:38:35;24.50;99.90
24522;DHT22;12680;57.804;12.190;2023-09-08T10:44:01;24.60;99.90
24522;DHT22;12680;57.804;12.190;2023-09-08T10:46:36;24.70;99.90
24522;DHT22;12680;57.804;12.190;2023-09-08T10:49:05;24.90;99.90
24522;DHT22;12680;57.804;12.190;2023-09-08T10:51:35;25.00;99.90
24522;DHT22;12680;57.804;12.190;2023-09-08T10:54:12;25.10;99.90
24522;DHT22;12680;57.804;12.190;2023-09-08T10:57:08;25.20;99.90
24522;DHT22;12680;57.804;12.190;2023-09-08T11:05:10;25.40;99.90
24522;DHT22;12680;57.804;12.190;2023-09-08T11:07:37;25.50;99.70
24522;DHT22;12680;57.804;12.190;2023-09-08T11:10:15;25.40;99.50
24522;DHT22;12680;57.804;12.190;2023-09-08T11:12:42;25.50;99.50
24522;DHT22;12680;57.804;12.190;2023-09-08T11:15:12;25.70;98.90
24522;DHT22;12680;57.804;12.190;2023-09-08T11:17:46;25.70;98.60
24522;DHT22;12680;57.804;12.190;2023-09-08T11:20:26;25.70;98.60
24522;DHT22;12680;57.804;12.190;2023-09-08T11:23:00;25.80;98.30
24522;DHT22;12680;57.804;12.190;2023-09-08T11:25:27;25.80;98.20
24522;DHT22;12680;57.804;12.190;2023-09-08T11:28:01;25.80;97.90
24522;DHT22;12680;57.804;12.190;2023-09-08T11:30:28;25.80;98.20
24522;DHT22;12680;57.804;12.190;2023-09-08T11:32:55;25.80;97.90
24522;DHT22;12680;57.804;12.190;2023-09-08T11:35:32;25.80;98.00
24522;DHT22;12680;57.804;12.190;2023-09-08T11:37:59;25.90;97.90
24522;DHT22;12680;57.804;12.190;2023-09-08T11:40:27;26.00;97.70
24522;DHT22;12680;57.804;12.190;2023-09-08T11:43:01;26.10;97.70
24522;DHT22;12680;57.804;12.190;2023-09-08T11:45:28;26.10;97.50
24522;DHT22;12680;57.804;12.190;2023-09-08T11:48:06;26.20;97.40
24522;DHT22;12680;57.804;12.190;2023-09-08T11:50:34;26.20;97.00
24522;DHT22;12680;57.804;12.190;2023-09-08T11:53:12;26.20;97.40
24522;DHT22;12680;57.804;12.190;2023-09-08T11:55:43;26.20;97.10
24522;DHT22;12680;57.804;12.190;2023-09-08T11:58:18;26.30;96.70
24522;DHT22;12680;57.804;12.190;2023-09-08T12:00:52;26.30;96.80
24522;DHT22;12680;57.804;12.190;2023-09-08T12:03:27;26.30;96.30
24522;DHT22;12680;57.804;12.190;2023-09-08T12:05:55;26.30;95.90
24522;DHT22;12680;57.804;12.190;2023-09-08T12:08:25;26.30;95.90
24522;DHT22;12680;57.804;12.190;2023-09-08T12:11:01;26.30;95.70
24522;DHT22;12680;57.804;12.190;2023-09-08T12:13:28;26.30;95.90
24522;DHT22;12680;57.804;12.190;2023-09-08T12:16:21;26.30;95.60
24522;DHT22;12680;57.804;12.190;2023-09-08T12:18:51;26.40;95.60
24522;DHT22;12680;57.804;12.190;2023-09-08T12:21:29;26.40;95.10
24522;DHT22;12680;57.804;12.190;2023-09-08T12:23:58;26.40;94.90
24522;DHT22;12680;57.804;12.190;2023-09-08T12:26:25;26.50;94.90
24522;DHT22;12680;57.804;12.190;2023-09-08T12:28:59;26.50;94.70
24522;DHT22;12680;57.804;12.190;2023-09-08T12:31:26;26.70;95.00
24522;DHT22;12680;57.804;12.190;2023-09-08T12:34:00;26.70;94.80
24522;DHT22;12680;57.804;12.190;2023-09-08T12:36:28;26.80;94.30
24522;DHT22;12680;57.804;12.190;2023-09-08T12:39:04;26.90;94.20
24522;DHT22;12680;57.804;12.190;2023-09-08T12:41:35;27.00;94.40
24522;DHT22;12680;57.804;12.190;2023-09-08T12:44:09;27.10;94.40
24522;DHT22;12680;57.804;12.190;2023-09-08T12:46:36;27.10;94.20
24522;DHT22;12680;57.804;12.190;2023-09-08T12:49:03;27.10;94.00
24522;DHT22;12680;57.804;12.190;2023-09-08T12:51:38;27.00;94.30
24522;DHT22;12680;57.804;12.190;2023-09-08T12:54:19;27.00;94.80
24522;DHT22;12680;57.804;12.190;2023-09-08T12:56:56;27.10;94.80
24522;DHT22;12680;57.804;12.190;2023-09-08T12:59:32;27.20;94.40
24522;DHT22;12680;57.804;12.190;2023-09-08T13:02:06;27.20;94.40
24522;DHT22;12680;57.804;12.190;2023-09-08T13:04:36;27.20;94.30
24522;DHT22;12680;57.804;12.190;2023-09-08T13:07:03;27.10;94.30
24522;DHT22;12680;57.804;12.190;2023-09-08T13:09:37;27.10;94.40
24522;DHT22;12680;57.804;12.190;2023-09-08T13:12:06;27.10;94.40
24522;DHT22;12680;57.804;12.190;2023-09-08T13:14:43;27.10;94.40
24522;DHT22;12680;57.804;12.190;2023-09-08T13:17:13;27.20;94.10
24522;DHT22;12680;57.804;12.190;2023-09-08T13:19:50;27.30;94.10
24522;DHT22;12680;57.804;12.190;2023-09-08T13:22:17;27.40;94.30
24522;DHT22;12680;57.804;12.190;2023-09-08T13:24:50;27.40;94.30
24522;DHT22;12680;57.804;12.190;2023-09-08T13:27:17;27.50;94.30
24522;DHT22;12680;57.804;12.190;2023-09-08T13:29:44;27.50;93.90
24522;DHT22;12680;57.804;12.190;2023-09-08T13:32:18;27.40;94.00
24522;DHT22;12680;57.804;12.190;2023-09-08T13:34:49;27.40;94.20
24522;DHT22;12680;57.804;12.190;2023-09-08T13:37:23;27.40;94.20
24522;DHT22;12680;57.804;12.190;2023-09-08T13:39:53;27.40;94.10
24522;DHT22;12680;57.804;12.190;2023-09-08T13:42:20;27.40;94.20
24522;DHT22;12680;57.804;12.190;2023-09-08T13:44:54;27.40;94.20
24522;DHT22;12680;57.804;12.190;2023-09-08T13:47:22;27.40;94.40
24522;DHT22;12680;57.804;12.190;2023-09-08T13:49:50;27.40;94.70
24522;DHT22;12680;57.804;12.190;2023-09-08T13:52:30;27.50;94.50
24522;DHT22;12680;57.804;12.190;2023-09-08T13:55:02;27.60;94.30
24522;DHT22;12680;57.804;12.190;2023-09-08T13:57:45;27.60;94.20
24522;DHT22;12680;57.804;12.190;2023-09-08T14:00:29;27.60;94.20
24522;DHT22;12680;57.804;12.190;2023-09-08T14:03:04;27.60;94.00
24522;DHT22;12680;57.804;12.190;2023-09-08T14:05:38;27.50;93.80
24522;DHT22;12680;57.804;12.190;2023-09-08T14:08:12;27.30;93.70
24522;DHT22;12680;57.804;12.190;2023-09-08T14:10:50;27.20;93.90
24522;DHT22;12680;57.804;12.190;2023-09-08T14:13:27;27.10;94.10
24522;DHT22;12680;57.804;12.190;2023-09-08T14:15:54;26.90;94.30
24522;DHT22;12680;57.804;12.190;2023-09-08T14:18:28;26.90;94.10
24522;DHT22;12680;57.804;12.190;2023-09-08T14:20:56;26.80;94.10
24522;DHT22;12680;57.804;12.190;2023-09-08T14:23:23;26.90;94.30
24522;DHT22;12680;57.804;12.190;2023-09-08T14:25:56;26.90;94.00
24522;DHT22;12680;57.804;12.190;2023-09-08T14:28:23;26.90;94.20
24522;DHT22;12680;57.804;12.190;2023-09-08T14:31:00;26.90;94.40
24522;DHT22;12680;57.804;12.190;2023-09-08T14:33:27;26.90;94.50
24522;DHT22;12680;57.804;12.190;2023-09-08T14:36:01;26.90;94.60
24522;DHT22;12680;57.804;12.190;2023-09-08T14:38:29;26.80;94.60
24522;DHT22;12680;57.804;12.190;2023-09-08T14:41:11;26.00;94.40
24522;DHT22;12680;57.804;12.190;2023-09-08T14:43:41;26.70;95.00
24522;DHT22;12680;57.804;12.190;2023-09-08T14:46:16;26.70;95.10
24522;DHT22;12680;57.804;12.190;2023-09-08T14:48:43;26.60;95.30
24522;DHT22;12680;57.804;12.190;2023-09-08T14:51:16;26.60;95.50
24522;DHT22;12680;57.804;12.190;2023-09-08T14:53:53;26.50;95.70
24522;DHT22;12680;57.804;12.190;2023-09-08T14:56:20;26.50;96.00
24522;DHT22;12680;57.804;12.190;2023-09-08T14:58:59;26.50;96.00
24522;DHT22;12680;57.804;12.190;2023-09-08T15:01:26;26.50;95.90
24522;DHT22;12680;57.804;12.190;2023-09-08T15:04:00;26.50;96.10
24522;DHT22;12680;57.804;12.190;2023-09-08T15:06:27;26.60;96.20
24522;DHT22;12680;57.804;12.190;2023-09-08T15:08:54;26.60;96.30
24522;DHT22;12680;57.804;12.190;2023-09-08T15:11:28;26.70;96.40
24522;DHT22;12680;57.804;12.190;2023-09-08T15:14:05;26.80;96.40
24522;DHT22;12680;57.804;12.190;2023-09-08T15:16:33;26.80;96.10
24522;DHT22;12680;57.804;12.190;2023-09-08T15:19:10;26.70;96.20
24522;DHT22;12680;57.804;12.190;2023-09-08T15:21:37;26.70;96.20
24522;DHT22;12680;57.804;12.190;2023-09-08T15:24:10;26.70;96.30
24522;DHT22;12680;57.804;12.190;2023-09-08T15:26:37;26.60;96.30
24522;DHT22;12680;57.804;12.190;2023-09-08T15:29:13;26.50;96.30
24522;DHT22;12680;57.804;12.190;2023-09-08T15:31:41;26.50;96.50
24522;DHT22;12680;57.804;12.190;2023-09-08T15:34:12;26.40;96.60
24522;DHT22;12680;57.804;12.190;2023-09-08T15:36:46;26.50;96.90
24522;DHT22;12680;57.804;12.190;2023-09-08T15:39:19;26.40;97.00
24522;DHT22;12680;57.804;12.190;2023-09-08T15:41:52;26.30;97.00
24522;DHT22;12680;57.804;12.190;2023-09-08T15:44:19;26.30;97.10
24522;DHT22;12680;57.804;12.190;2023-09-08T15:46:52;26.20;97.20
24522;DHT22;12680;57.804;12.190;2023-09-08T15:49:19;26.20;97.30
24522;DHT22;12680;57.804;12.190;2023-09-08T15:51:52;26.10;97.40
24522;DHT22;12680;57.804;12.190;2023-09-08T15:54:49;26.10;97.50
24522;DHT22;12680;57.804;12.190;2023-09-08T15:57:16;26.00;97.60
24522;DHT22;12680;57.804;12.190;2023-09-08T15:59:57;25.90;97.70
24522;DHT22;12680;57.804;12.190;2023-09-08T16:02:35;25.90;97.90
24522;DHT22;12680;57.804;12.190;2023-09-08T16:05:09;25.90;97.90
24522;DHT22;12680;57.804;12.190;2023-09-08T16:07:44;25.90;98.00
24522;DHT22;12680;57.804;12.190;2023-09-08T16:10:20;25.90;98.00
24522;DHT22;12680;57.804;12.190;2023-09-08T16:12:50;25.90;98.00
24522;DHT22;12680;57.804;12.190;2023-09-08T16:15:17;25.90;98.10
24522;DHT22;12680;57.804;12.190;2023-09-08T16:17:51;25.80;98.20
24522;DHT22;12680;57.804;12.190;2023-09-08T16:20:22;25.70;98.20
24522;DHT22;12680;57.804;12.190;2023-09-08T16:23:00;25.70;98.30
24522;DHT22;12680;57.804;12.190;2023-09-08T16:25:39;25.60;98.10
24522;DHT22;12680;57.804;12.190;2023-09-08T16:28:13;25.50;98.50
24522;DHT22;12680;57.804;12.190;2023-09-08T16:30:44;25.40;98.20
24522;DHT22;12680;57.804;12.190;2023-09-08T16:33:17;25.40;98.40
24522;DHT22;12680;57.804;12.190;2023-09-08T16:35:49;25.30;98.40
24522;DHT22;12680;57.804;12.190;2023-09-08T16:38:29;25.20;98.50
24522;DHT22;12680;57.804;12.190;2023-09-08T16:40:59;25.10;98.60
24522;DHT22;12680;57.804;12.190;2023-09-08T16:43:37;25.10;98.80
24522;DHT22;12680;57.804;12.190;2023-09-08T16:46:07;25.10;99.00
24522;DHT22;12680;57.804;12.190;2023-09-08T16:48:45;25.10;99.10